< < Back
Terminal Aerodrome Forecast


Current Version              Previous Versions:   1  2  3  4  5  6  7  8  9  

Terminal Aerodrome Forecast

243
FTUS44 KHUN 011734
TAFHSV
TAF
KHSV 011734Z 0118/0218 22008KT P6SM FEW040 SCT150
     FM020200 VRB03KT P6SM SCT120
      TEMPO 0210/0214 5SM BR
     FM021500 24005KT P6SM SCT040=



Latest METAR

313
SAUS80 KWBC 011700 RRQ
MTRHSV
METAR KHSV 021653Z 18005KT 10SM BKN035 BKN250 31/22 A3008 RMK AO2 SLP178
T03110222


USA.gov is the U.S. government's official web portal to all federal, state and local government web resources and services.